Accueil
METAR-TAF:

METAR-TAF

Aéroports :

Aéroport d'Attawapiskat

Attawapiskat, Ontario, Canada

latitude: 52-55-39N, longitude: 082-25-55W, altitude: 9 m

Observation

Le bulletin a été fait il y a 1 heure et 3 minutes, à 15:00 UTC
Vent 10 kt de nord/nord-est
Température 6°C
Humidité 75%
Pression 1013 hPa
Visibilité: 14.5 km
Quelques nuages à une hauteur de 6000 ft
Nuages épars à une hauteur de 12000 ft

METAR: CYAT 021500Z AUTO 03010KT 9SM FEW060 SCT120 06/02 A2990 RMK SLP126

Heure: 12:03 (16:03 UTC)

Prévision

Le bulletin a été fait il y a 1 heure et 25 minutes, à 14:38 UTC
Prévision valable du 02 à 15 UTC au 02 à 19 UTC
Vent 8 kt de est/nord-est
Visibilité: 10 km
Ciel couvert à une hauteur de 6000 ft

TAF: CYAT 021438Z 0215/0219 06008KT P6SM OVC060 RMK FCST BASED ON AUTO OBS. NXT FCST WILL BE ISSUED AT 030845Z

Observations et prévisions météorologiques de plus de 4000 aéroports (messages METAR et TAF).

Les stations disponibles sont représentées par des disques jaunes et rouges sur la carte.

Passer la souris dessus pour voir le nom de la station.

Cliquer dessus pour voir les observations et prévisions météorologiques.

Pour changer de carte: cliquez sur les boutons verts avec une croix noire pour zoomer, sur le bouton vert avec un tiret pour effectuer un zoom arrière, ou sur les flèches vertes pour les cartes adjacentes.


METAR-TAF: